Time;durP1;ratioP1;P1;durP2;ratioP2;P2;SDS_P1;SDS_P2;PMS_P1;PMS_P2;Temp;Humidity;BMP_temperature;BMP_pressure;BME280_temperature;BME280_humidity;BME280_pressure;Samples;Min_cycle;Max_cycle;Signal;HPM_P1;HPM_P2
2023/02/11 00:00:24;;;;;;;50.03;19.15;;;4.30;88.60;;;;;;5084670;28;20039;-58
2023/02/11 00:02:50;;;;;;;57.50;20.20;;;4.20;88.60;;;;;;5084558;28;20056;-58
2023/02/11 00:05:15;;;;;;;50.28;18.65;;;4.20;88.60;;;;;;5099899;28;20025;-58
2023/02/11 00:07:41;;;;;;;54.88;19.55;;;4.20;89.30;;;;;;5066476;28;20047;-58
2023/02/11 00:10:07;;;;;;;49.65;19.17;;;4.20;88.80;;;;;;5084492;28;20017;-59
2023/02/11 00:12:35;;;;;;;41.45;17.98;;;4.20;88.80;;;;;;5083285;28;20039;-58
2023/02/11 00:15:01;;;;;;;47.78;19.35;;;4.10;88.80;;;;;;5083171;28;20021;-58
2023/02/11 00:17:27;;;;;;;44.65;18.33;;;4.10;88.80;;;;;;5084672;28;20476;-58
2023/02/11 00:19:52;;;;;;;52.92;18.88;;;4.10;88.80;;;;;;5084442;28;20051;-58
2023/02/11 00:22:18;;;;;;;46.13;19.27;;;4.10;88.80;;;;;;5084668;28;20041;-58
2023/02/11 00:24:44;;;;;;;56.15;19.60;;;4.10;88.90;;;;;;5099844;28;20035;-57
2023/02/11 00:27:09;;;;;;;45.58;18.13;;;4.10;88.90;;;;;;5083147;28;20075;-58
2023/02/11 00:29:36;;;;;;;62.50;19.88;;;4.10;89.00;;;;;;5083005;28;20025;-58
2023/02/11 00:32:04;;;;;;;41.90;19.70;;;4.00;89.00;;;;;;5083279;28;20093;-58
2023/02/11 00:34:30;;;;;;;41.33;18.80;;;4.00;89.00;;;;;;5084385;28;20042;-58
2023/02/11 00:36:55;;;;;;;43.25;18.63;;;4.00;89.10;;;;;;5066432;28;20066;-58
2023/02/11 00:39:21;;;;;;;48.47;18.75;;;4.00;89.10;;;;;;5084296;28;20070;-58
2023/02/11 00:41:46;;;;;;;39.13;18.48;;;3.90;89.10;;;;;;5049345;28;20037;-58
2023/02/11 00:44:12;;;;;;;47.33;18.17;;;4.00;89.10;;;;;;5084261;28;20059;-58
2023/02/11 00:46:37;;;;;;;56.33;18.15;;;3.90;89.80;;;;;;5084362;28;20040;-58
2023/02/11 00:49:03;;;;;;;43.30;17.15;;;3.90;89.20;;;;;;5066907;28;20039;-58
2023/02/11 00:51:29;;;;;;;38.63;17.67;;;3.90;89.30;;;;;;5083149;28;20033;-58
2023/02/11 00:53:55;;;;;;;38.22;18.55;;;3.90;88.80;;;;;;5082938;28;20035;-58
2023/02/11 00:56:20;;;;;;;43.75;18.83;;;3.90;89.30;;;;;;5066566;28;20032;-57
2023/02/11 00:58:46;;;;;;;40.63;17.52;;;3.80;89.20;;;;;;5083414;28;20028;-58
2023/02/11 01:01:11;;;;;;;42.85;18.50;;;3.90;89.40;;;;;;5082929;28;20044;-58
2023/02/11 01:03:37;;;;;;;42.53;17.38;;;3.80;89.40;;;;;;5065905;28;20028;-58
2023/02/11 01:06:03;;;;;;;38.42;17.98;;;3.80;89.30;;;;;;5082887;28;20403;-58
2023/02/11 01:08:29;;;;;;;40.17;16.80;;;3.80;89.40;;;;;;5084093;28;20032;-58
2023/02/11 01:10:59;;;;;;;45.83;18.38;;;3.80;89.40;;;;;;5052980;28;20445;-58
2023/02/11 01:13:25;;;;;;;40.97;17.48;;;3.80;89.40;;;;;;5086568;28;20352;-57
2023/02/11 01:15:51;;;;;;;38.25;16.40;;;3.70;89.40;;;;;;5069839;28;20059;-58
2023/02/11 01:18:16;;;;;;;35.28;17.30;;;3.80;89.50;;;;;;5069699;28;20056;-58
2023/02/11 01:20:42;;;;;;;46.45;18.27;;;3.70;89.40;;;;;;5088371;28;20050;-57
2023/02/11 01:23:07;;;;;;;37.33;17.92;;;3.70;89.50;;;;;;5086400;28;20037;-57
2023/02/11 01:25:33;;;;;;;36.22;17.00;;;3.70;89.50;;;;;;5085979;28;20016;-58
2023/02/11 01:27:58;;;;;;;38.75;17.35;;;3.70;89.50;;;;;;5086131;28;20506;-58
2023/02/11 01:30:24;;;;;;;37.65;18.23;;;3.70;89.60;;;;;;5086469;28;20406;-58
2023/02/11 01:32:49;;;;;;;39.70;21.02;;;3.70;89.60;;;;;;5087456;28;20377;-58
2023/02/11 01:35:15;;;;;;;35.67;18.42;;;3.70;89.70;;;;;;5087338;28;20035;-58
2023/02/11 01:37:40;;;;;;;33.25;17.27;;;3.60;89.70;;;;;;5069179;28;20441;-57
2023/02/11 01:40:10;;;;;;;46.75;18.63;;;3.60;89.70;;;;;;5087281;28;20029;-58
2023/02/11 01:42:35;;;;;;;34.22;17.42;;;3.60;89.60;;;;;;5086557;28;20040;-58
2023/02/11 01:45:03;;;;;;;42.03;16.95;;;3.60;89.70;;;;;;5086636;28;20024;-58
2023/02/11 01:47:28;;;;;;;37.70;17.52;;;3.60;89.70;;;;;;5087989;28;20476;-58
2023/02/11 01:49:58;;;;;;;44.75;18.58;;;3.60;89.70;;;;;;5102569;28;20028;-58
2023/02/11 01:52:30;;;;;;;32.72;17.80;;;3.60;89.70;;;;;;5069630;28;20041;-57
2023/02/11 01:57:45;;;;;;;35.28;17.10;;;3.50;89.80;;;;;;5071924;28;20044;-58
2023/02/11 02:00:26;;;;;;;31.15;17.10;;;3.50;89.80;;;;;;5085305;28;20040;-58
2023/02/11 02:02:54;;;;;;;32.20;16.88;;;3.50;90.00;;;;;;5070065;28;20032;-58
2023/02/11 02:05:39;;;;;;;41.05;19.75;;;3.50;90.00;;;;;;5085288;28;20033;-57
2023/02/11 02:08:29;;;;;;;28.67;16.23;;;3.50;90.00;;;;;;5085229;28;20025;-55
2023/02/11 02:10:55;;;;;;;34.97;17.98;;;3.50;90.00;;;;;;5069935;28;20469;-55
2023/02/11 02:13:24;;;;;;;37.42;17.27;;;3.40;90.00;;;;;;5068623;28;20096;-58
2023/02/11 02:15:53;;;;;;;33.90;17.08;;;3.40;90.00;;;;;;5068552;28;20040;-57
2023/02/11 02:18:50;;;;;;;39.25;18.75;;;3.40;90.00;;;;;;5068983;28;20033;-57
2023/02/11 02:21:43;;;;;;;34.13;16.45;;;3.40;90.00;;;;;;5085675;28;20480;-58
2023/02/11 02:24:46;;;;;;;24.95;15.88;;;3.40;90.00;;;;;;5086645;28;20020;-57
2023/02/11 02:27:31;;;;;;;38.85;18.23;;;3.40;90.00;;;;;;5086622;28;20051;-58
2023/02/11 02:30:02;;;;;;;30.45;17.58;;;3.30;90.10;;;;;;5069088;28;20028;-58
2023/02/11 02:32:37;;;;;;;33.72;17.05;;;3.30;90.10;;;;;;5086526;28;20032;-58
2023/02/11 02:35:16;;;;;;;36.15;17.77;;;3.40;90.10;;;;;;5084865;28;20025;-58
2023/02/11 02:37:42;;;;;;;39.90;17.45;;;3.30;90.10;;;;;;5069026;28;20097;-58
2023/02/11 02:40:13;;;;;;;26.63;16.77;;;3.30;90.10;;;;;;5086100;28;20058;-58
2023/02/11 02:42:38;;;;;;;37.28;17.48;;;3.30;90.10;;;;;;5068350;28;20471;-58
2023/02/11 02:45:05;;;;;;;32.90;16.73;;;3.30;90.10;;;;;;5067927;28;20037;-57
2023/02/11 02:47:31;;;;;;;26.35;16.00;;;3.30;90.10;;;;;;5067840;28;20040;-58
2023/02/11 02:49:56;;;;;;;28.50;16.63;;;3.30;90.10;;;;;;5084522;28;20032;-57
2023/02/11 02:52:54;;;;;;;30.92;15.82;;;3.30;90.10;;;;;;5084533;28;20021;-57
2023/02/11 02:55:37;;;;;;;36.83;17.27;;;3.20;90.20;;;;;;5085754;28;20096;-58
2023/02/11 02:58:21;;;;;;;31.33;16.27;;;3.20;90.10;;;;;;5084705;28;20029;-58
2023/02/11 03:01:10;;;;;;;32.25;16.27;;;3.20;90.10;;;;;;5085902;28;20071;-58
2023/02/11 03:04:04;;;;;;;32.75;16.55;;;3.20;90.10;;;;;;5086907;28;20130;-58
2023/02/11 03:06:34;;;;;;;29.15;15.20;;;3.20;90.20;;;;;;5069551;28;20033;-58
2023/02/11 03:09:11;;;;;;;28.17;15.38;;;3.20;90.20;;;;;;5084169;28;20025;-58
2023/02/11 03:11:37;;;;;;;33.60;15.65;;;3.10;90.50;;;;;;5068196;28;20040;-58
2023/02/11 03:14:04;;;;;;;29.02;15.88;;;3.20;90.20;;;;;;5083855;28;20033;-58
2023/02/11 03:16:34;;;;;;;30.83;14.80;;;3.10;90.30;;;;;;5067720;28;20024;-58
2023/02/11 03:19:07;;;;;;;34.72;15.70;;;3.10;90.60;;;;;;5085396;28;20036;-57
2023/02/11 03:21:32;;;;;;;27.67;15.65;;;3.10;90.30;;;;;;5067601;28;20035;-58
2023/02/11 03:24:01;;;;;;;26.30;15.80;;;3.10;90.30;;;;;;5067486;28;20417;-57
2023/02/11 03:26:31;;;;;;;30.35;15.32;;;3.10;90.30;;;;;;5067474;28;20032;-58
2023/02/11 03:29:02;;;;;;;24.67;15.55;;;3.10;90.30;;;;;;5083908;28;20381;-57
2023/02/11 03:31:40;;;;;;;30.17;15.60;;;3.10;90.30;;;;;;5083734;28;20024;-58
2023/02/11 03:34:25;;;;;;;28.63;15.05;;;3.10;90.30;;;;;;5084605;28;20024;-57
2023/02/11 03:36:53;;;;;;;24.35;14.50;;;3.10;90.30;;;;;;5084237;28;20025;-58
2023/02/11 03:39:21;;;;;;;29.02;14.90;;;3.10;90.30;;;;;;5067573;28;20035;-58
2023/02/11 03:41:47;;;;;;;26.27;15.77;;;3.10;90.30;;;;;;5067715;28;20067;-58
2023/02/11 03:44:13;;;;;;;27.65;15.85;;;3.00;90.30;;;;;;5066973;28;20025;-57
2023/02/11 03:46:38;;;;;;;28.35;16.13;;;3.00;90.30;;;;;;5066915;28;20031;-58
2023/02/11 03:49:07;;;;;;;22.95;14.90;;;3.00;90.30;;;;;;5066710;28;20044;-58
2023/02/11 03:58:17;;;;;;;27.38;14.18;;;3.00;90.30;;;;;;5085155;28;20475;-58
2023/02/11 04:00:43;;;;;;;26.35;14.82;;;3.00;90.30;;;;;;5066777;28;20062;-58
2023/02/11 04:03:09;;;;;;;25.33;14.82;;;3.00;90.20;;;;;;5083368;28;20461;-57
2023/02/11 04:05:34;;;;;;;26.00;14.38;;;3.00;90.30;;;;;;5083594;28;20080;-58
2023/02/11 04:08:00;;;;;;;24.45;15.15;;;3.00;90.30;;;;;;5084914;28;20032;-58
2023/02/11 04:10:25;;;;;;;23.77;14.35;;;3.00;90.30;;;;;;5066355;28;20033;-58
2023/02/11 04:12:51;;;;;;;23.77;15.30;;;3.00;90.30;;;;;;5084515;28;20084;-57
2023/02/11 04:15:16;;;;;;;25.00;15.40;;;3.00;90.30;;;;;;5083231;28;20025;-58
2023/02/11 04:17:42;;;;;;;27.85;13.90;;;3.00;90.30;;;;;;5084734;28;20512;-58
2023/02/11 04:20:08;;;;;;;22.67;13.88;;;3.00;90.30;;;;;;5066529;28;20033;-58
2023/02/11 04:22:34;;;;;;;22.17;13.85;;;3.00;90.30;;;;;;5084648;28;20033;-58
2023/02/11 04:25:00;;;;;;;22.70;14.30;;;3.00;90.30;;;;;;5083197;28;20036;-58
2023/02/11 04:27:25;;;;;;;25.27;15.00;;;2.90;90.30;;;;;;5066193;28;20028;-58
2023/02/11 04:29:51;;;;;;;27.25;14.52;;;2.90;90.30;;;;;;5084613;28;20066;-58
2023/02/11 04:32:16;;;;;;;22.75;15.25;;;3.00;90.40;;;;;;5066325;28;20112;-58
2023/02/11 04:34:42;;;;;;;23.42;15.35;;;2.90;90.30;;;;;;5083173;28;20025;-58
2023/02/11 04:37:07;;;;;;;21.73;14.15;;;2.90;90.40;;;;;;5083092;28;20028;-58
2023/02/11 04:39:33;;;;;;;22.85;14.98;;;2.90;90.40;;;;;;5083138;28;20032;-58
2023/02/11 04:41:59;;;;;;;22.85;14.90;;;2.90;90.40;;;;;;5083021;28;20028;-58
2023/02/11 04:44:24;;;;;;;24.50;14.45;;;2.90;90.40;;;;;;5084652;28;20032;-58
2023/02/11 04:46:50;;;;;;;23.70;14.48;;;2.90;90.40;;;;;;5087056;28;20051;-58
2023/02/11 04:56:00;;;;;;;23.42;14.27;;;2.90;90.40;;;;;;5088190;28;20134;-58
2023/02/11 04:58:26;;;;;;;23.58;13.85;;;2.90;90.40;;;;;;5086671;28;20116;-59
2023/02/11 05:04:20;;;;;;;23.98;14.48;;;2.80;90.40;;;;;;5087985;28;20046;-58
2023/02/11 05:06:57;;;;;;;21.08;14.07;;;2.80;90.40;;;;;;5087665;28;20029;-58
2023/02/11 05:09:23;;;;;;;27.13;14.77;;;2.80;90.40;;;;;;5086617;28;20021;-58
2023/02/11 05:11:48;;;;;;;22.35;15.13;;;2.80;90.40;;;;;;5069736;28;20025;-58
2023/02/11 05:14:14;;;;;;;23.52;15.13;;;2.80;90.40;;;;;;5086183;28;20111;-58
2023/02/11 05:16:39;;;;;;;22.50;15.32;;;2.80;90.50;;;;;;5069813;28;20044;-58
2023/02/11 05:19:05;;;;;;;21.98;14.25;;;2.80;90.50;;;;;;5086398;28;20028;-58
2023/02/11 05:21:30;;;;;;;22.55;13.95;;;2.80;90.50;;;;;;5069454;28;20048;-58
2023/02/11 05:23:56;;;;;;;23.20;15.10;;;2.80;90.50;;;;;;5086239;28;20074;-58
2023/02/11 05:26:21;;;;;;;23.42;14.00;;;2.70;90.50;;;;;;5087749;28;20037;-58
2023/02/11 05:28:47;;;;;;;26.95;14.90;;;2.70;90.50;;;;;;5087689;28;20032;-58
2023/02/11 05:31:13;;;;;;;21.77;13.77;;;2.70;90.40;;;;;;5052726;28;20100;-58
2023/02/11 05:33:39;;;;;;;23.95;14.65;;;2.80;90.40;;;;;;5087532;28;20028;-58
2023/02/11 05:36:07;;;;;;;21.35;14.45;;;2.80;90.40;;;;;;5087440;28;20063;-58
2023/02/11 05:38:32;;;;;;;22.35;14.23;;;2.70;90.40;;;;;;5085827;28;20175;-57
2023/02/11 05:40:58;;;;;;;19.27;14.45;;;2.70;90.40;;;;;;5087709;28;20402;-57
2023/02/11 05:43:24;;;;;;;24.17;13.95;;;2.70;90.50;;;;;;5086511;28;20423;-58
2023/02/11 05:45:49;;;;;;;23.02;14.48;;;2.70;90.50;;;;;;5087033;28;20402;-58
2023/02/11 05:48:15;;;;;;;23.48;15.00;;;2.70;90.50;;;;;;5086842;28;20036;-58
2023/02/11 05:50:40;;;;;;;20.63;13.63;;;2.70;90.50;;;;;;5085593;28;20047;-58
2023/02/11 05:53:06;;;;;;;21.13;13.68;;;2.70;90.50;;;;;;5052223;28;20035;-58
2023/02/11 05:55:32;;;;;;;22.60;14.93;;;2.70;90.50;;;;;;5084687;28;20036;-58
2023/02/11 05:57:57;;;;;;;23.60;14.02;;;2.70;90.50;;;;;;5087126;28;20033;-58
2023/02/11 06:00:23;;;;;;;20.92;14.02;;;2.70;90.50;;;;;;5086984;28;20028;-57
2023/02/11 06:02:49;;;;;;;21.85;14.93;;;2.70;90.60;;;;;;5068862;28;20036;-58
2023/02/11 06:05:14;;;;;;;23.33;15.63;;;2.70;90.60;;;;;;5068734;28;20044;-58
2023/02/11 06:07:40;;;;;;;25.88;15.45;;;2.70;90.60;;;;;;5085338;28;20088;-58
2023/02/11 06:10:06;;;;;;;23.50;16.05;;;2.70;90.80;;;;;;5085487;28;20020;-58
2023/02/11 06:12:32;;;;;;;24.42;15.13;;;2.60;90.50;;;;;;5068557;28;20032;-58
2023/02/11 06:14:57;;;;;;;24.33;15.65;;;2.60;90.50;;;;;;5085375;28;20033;-58
2023/02/11 06:17:24;;;;;;;20.73;14.98;;;2.60;90.60;;;;;;5085525;28;20029;-58
2023/02/11 06:19:49;;;;;;;19.20;14.25;;;2.60;90.60;;;;;;5085206;28;20032;-58
2023/02/11 06:22:15;;;;;;;23.52;14.80;;;2.60;90.60;;;;;;5086640;28;20036;-58
2023/02/11 06:24:41;;;;;;;21.52;15.20;;;2.60;90.60;;;;;;5086481;28;20451;-58
2023/02/11 06:27:06;;;;;;;22.98;15.48;;;2.60;90.60;;;;;;5085012;28;20033;-58
2023/02/11 06:29:32;;;;;;;20.98;15.23;;;2.60;90.60;;;;;;5086581;28;20029;-57
2023/02/11 06:31:57;;;;;;;21.27;15.45;;;2.60;90.60;;;;;;5068583;28;20047;-56
2023/02/11 06:34:23;;;;;;;23.42;15.32;;;2.60;90.60;;;;;;5086496;28;20035;-57
2023/02/11 06:36:48;;;;;;;23.77;15.65;;;2.60;90.60;;;;;;5086033;28;20032;-57
2023/02/11 06:39:14;;;;;;;26.13;17.15;;;2.70;90.70;;;;;;5101372;28;20024;-58
2023/02/11 06:41:39;;;;;;;21.58;15.65;;;2.60;90.80;;;;;;5084646;28;20082;-57
2023/02/11 06:44:05;;;;;;;20.77;15.18;;;2.70;90.90;;;;;;5084538;28;20048;-58
2023/02/11 06:46:31;;;;;;;28.60;16.55;;;2.70;90.90;;;;;;5068102;28;20441;-58
2023/02/11 06:48:56;;;;;;;23.88;16.65;;;2.60;91.00;;;;;;5067649;28;20040;-58
2023/02/11 06:51:22;;;;;;;27.75;16.05;;;2.70;91.10;;;;;;5085827;28;20032;-58
2023/02/11 06:53:48;;;;;;;22.27;15.02;;;2.60;91.00;;;;;;5085715;28;20046;-58
2023/02/11 06:56:15;;;;;;;26.85;15.82;;;2.60;91.10;;;;;;5085838;28;20035;-58
2023/02/11 06:58:41;;;;;;;23.25;15.70;;;2.70;91.20;;;;;;5085529;28;20025;-57
2023/02/11 07:01:07;;;;;;;23.27;15.52;;;2.70;91.20;;;;;;5084336;28;20028;-57
2023/02/11 07:03:35;;;;;;;24.83;16.58;;;2.70;91.20;;;;;;5101210;28;20032;-58
2023/02/11 07:06:03;;;;;;;28.02;15.98;;;2.60;91.10;;;;;;5051246;28;20051;-58
2023/02/11 07:08:28;;;;;;;24.73;16.70;;;2.70;91.10;;;;;;5083881;28;20040;-58
2023/02/11 07:10:54;;;;;;;28.83;15.77;;;2.60;91.10;;;;;;5084223;28;20035;-58
2023/02/11 07:13:19;;;;;;;23.25;15.77;;;2.60;91.10;;;;;;5084119;28;20020;-58
2023/02/11 07:15:45;;;;;;;29.02;16.27;;;2.60;91.00;;;;;;5085357;28;20036;-58
2023/02/11 07:18:11;;;;;;;26.77;15.95;;;2.60;91.00;;;;;;5085437;28;20032;-58
2023/02/11 07:20:37;;;;;;;26.60;15.80;;;2.60;91.00;;;;;;5085491;28;20028;-58
2023/02/11 07:23:03;;;;;;;27.80;15.52;;;2.60;91.00;;;;;;5067072;28;20032;-58
2023/02/11 07:25:29;;;;;;;37.00;16.23;;;2.60;90.90;;;;;;5085444;28;20032;-58
2023/02/11 07:27:54;;;;;;;25.73;17.00;;;2.60;91.00;;;;;;5067294;28;20065;-58
2023/02/11 07:30:20;;;;;;;27.90;16.50;;;2.60;91.00;;;;;;5085271;28;20028;-58
2023/02/11 07:32:45;;;;;;;38.17;16.85;;;2.60;91.00;;;;;;5066999;28;20070;-58
2023/02/11 07:35:11;;;;;;;22.83;17.10;;;2.60;91.00;;;;;;5067035;28;20092;-58
2023/02/11 07:37:36;;;;;;;32.65;15.93;;;2.60;91.00;;;;;;5083822;28;20088;-58
2023/02/11 07:40:02;;;;;;;26.55;15.65;;;2.60;91.00;;;;;;5083540;28;20503;-58
2023/02/11 07:42:28;;;;;;;25.15;15.82;;;2.60;91.10;;;;;;5067106;28;20033;-58
2023/02/11 07:44:53;;;;;;;24.05;15.73;;;2.60;91.30;;;;;;5066895;28;20479;-58
2023/02/11 07:47:19;;;;;;;26.83;16.60;;;2.60;91.50;;;;;;5083462;28;20033;-58
2023/02/11 07:49:44;;;;;;;27.05;16.70;;;2.60;91.50;;;;;;5084737;28;20185;-58
2023/02/11 07:52:10;;;;;;;24.98;16.77;;;2.60;91.50;;;;;;5083476;28;20021;-58
2023/02/11 07:54:35;;;;;;;26.08;16.58;;;2.60;91.50;;;;;;5066614;28;20050;-58
2023/02/11 07:57:01;;;;;;;27.38;15.30;;;2.50;91.40;;;;;;5084835;28;20084;-58
2023/02/11 07:59:26;;;;;;;25.85;14.85;;;2.50;91.40;;;;;;5084908;28;20025;-58
2023/02/11 08:01:53;;;;;;;24.98;15.95;;;2.50;91.50;;;;;;5084781;28;20024;-58
2023/02/11 08:04:18;;;;;;;24.00;15.82;;;2.50;91.50;;;;;;5085739;28;20032;-58
2023/02/11 08:06:44;;;;;;;22.38;16.05;;;2.50;91.50;;;;;;5084696;28;20380;-58
2023/02/11 08:09:15;;;;;;;26.60;15.50;;;2.50;91.50;;;;;;5084651;28;20047;-58
2023/02/11 08:11:41;;;;;;;29.38;16.48;;;2.50;91.60;;;;;;5083534;28;20063;-58
2023/02/11 08:14:07;;;;;;;23.67;16.17;;;2.50;91.60;;;;;;5066646;28;20091;-58
2023/02/11 08:16:34;;;;;;;26.45;16.35;;;2.50;91.70;;;;;;5083281;28;20072;-58
2023/02/11 08:19:02;;;;;;;22.20;15.15;;;2.50;91.70;;;;;;5085824;28;20103;-58
2023/02/11 08:21:27;;;;;;;27.17;16.17;;;2.50;91.60;;;;;;5091223;28;20025;-58
2023/02/11 08:23:53;;;;;;;24.65;16.95;;;2.50;91.70;;;;;;5089913;28;20032;-58
2023/02/11 08:26:27;;;;;;;25.95;16.05;;;2.50;91.60;;;;;;5089850;28;20123;-58
2023/02/11 08:28:53;;;;;;;27.20;15.93;;;2.50;91.60;;;;;;5089623;28;20028;-58
2023/02/11 08:31:23;;;;;;;26.20;15.50;;;2.50;91.60;;;;;;5073212;28;20029;-58
2023/02/11 08:33:49;;;;;;;19.35;15.23;;;2.50;91.50;;;;;;5089745;28;20479;-58
2023/02/11 08:36:16;;;;;;;22.67;15.93;;;2.50;91.50;;;;;;5089766;28;20148;-58
2023/02/11 08:38:42;;;;;;;22.13;15.15;;;2.50;91.50;;;;;;5106442;28;20029;-58
2023/02/11 08:41:08;;;;;;;21.75;15.80;;;2.50;91.40;;;;;;5091004;28;20028;-57
2023/02/11 08:43:34;;;;;;;22.45;15.57;;;2.50;91.40;;;;;;5090993;28;20046;-57
2023/02/11 08:46:00;;;;;;;22.33;16.48;;;2.50;91.40;;;;;;5089528;28;20033;-58
2023/02/11 08:48:27;;;;;;;27.63;15.57;;;2.60;91.40;;;;;;5090717;28;20039;-57
2023/02/11 08:50:53;;;;;;;21.52;15.73;;;2.50;91.40;;;;;;5089806;28;20048;-58
2023/02/11 08:53:19;;;;;;;22.48;15.60;;;2.50;91.40;;;;;;5089576;28;20020;-57
2023/02/11 08:55:49;;;;;;;25.88;16.60;;;2.60;91.40;;;;;;5072821;28;20039;-58
2023/02/11 08:58:14;;;;;;;19.95;14.32;;;2.60;91.30;;;;;;5072957;28;20067;-58
2023/02/11 09:00:41;;;;;;;21.70;15.90;;;2.60;91.30;;;;;;5089310;28;20028;-58
2023/02/11 09:03:07;;;;;;;23.45;15.48;;;2.60;91.30;;;;;;5089752;28;20033;-57
2023/02/11 09:05:32;;;;;;;24.23;15.93;;;2.60;91.30;;;;;;5089409;28;20449;-57
2023/02/11 09:07:58;;;;;;;24.00;16.33;;;2.60;91.30;;;;;;5089261;28;20453;-58
2023/02/11 09:10:23;;;;;;;23.10;16.17;;;2.60;91.30;;;;;;5090771;28;20030;-58
2023/02/11 09:12:49;;;;;;;26.73;15.75;;;2.60;91.40;;;;;;5089616;28;20047;-58
2023/02/11 09:15:14;;;;;;;30.38;15.98;;;2.60;91.40;;;;;;5090799;28;20028;-58
2023/02/11 09:17:40;;;;;;;25.63;15.15;;;2.60;91.50;;;;;;5090565;28;20062;-58
2023/02/11 09:20:06;;;;;;;25.52;16.17;;;2.60;91.50;;;;;;5089260;28;20033;-58
2023/02/11 09:22:31;;;;;;;41.17;17.23;;;2.60;91.50;;;;;;5090577;28;20108;-58
2023/02/11 09:24:57;;;;;;;38.17;17.05;;;2.70;91.60;;;;;;5072249;28;20088;-58
2023/02/11 09:27:22;;;;;;;29.52;16.90;;;2.70;91.70;;;;;;5090481;28;20040;-58
2023/02/11 09:29:48;;;;;;;30.00;16.42;;;2.70;91.70;;;;;;5089952;28;20024;-58
2023/02/11 09:32:14;;;;;;;33.25;15.88;;;2.70;91.70;;;;;;5087045;28;20028;-58
2023/02/11 09:34:39;;;;;;;30.80;17.05;;;2.70;91.70;;;;;;5087268;28;20025;-58
2023/02/11 09:37:05;;;;;;;28.52;17.40;;;2.80;91.80;;;;;;5069311;28;20033;-58
2023/02/11 09:39:30;;;;;;;74.57;22.13;;;2.80;91.80;;;;;;5087148;28;20040;-58
2023/02/11 09:42:19;;;;;;;70.40;20.85;;;2.80;91.90;;;;;;5086810;28;20028;-58
2023/02/11 09:44:44;;;;;;;38.03;17.63;;;2.80;91.90;;;;;;5085230;28;20070;-57
2023/02/11 09:47:35;;;;;;;39.65;18.00;;;2.80;92.00;;;;;;5068849;28;20032;-58
2023/02/11 09:50:06;;;;;;;39.00;17.33;;;2.90;92.10;;;;;;5052194;28;20035;-57
2023/02/11 09:52:44;;;;;;;51.92;18.23;;;2.90;92.10;;;;;;5085442;28;20024;-57
2023/02/11 09:55:20;;;;;;;79.30;20.88;;;2.90;92.10;;;;;;5068873;28;20068;-58
2023/02/11 09:57:45;;;;;;;67.60;20.50;;;2.90;92.20;;;;;;5068612;28;20036;-58
2023/02/11 10:00:19;;;;;;;69.28;18.25;;;3.00;92.30;;;;;;5085186;28;20044;-58
2023/02/11 10:03:15;;;;;;;56.90;20.52;;;3.00;92.30;;;;;;5085227;28;20078;-58
2023/02/11 10:05:47;;;;;;;49.00;19.73;;;3.00;92.40;;;;;;5086600;28;20107;-57
2023/02/11 10:08:14;;;;;;;58.90;19.42;;;3.10;92.40;;;;;;5086358;28;20035;-58
2023/02/11 10:10:43;;;;;;;50.78;18.52;;;3.10;92.40;;;;;;5084948;28;20040;-58
2023/02/11 10:13:17;;;;;;;102.05;21.83;;;3.10;92.40;;;;;;5085086;28;20045;-57
2023/02/11 10:15:43;;;;;;;119.28;23.27;;;3.10;92.40;;;;;;5085302;28;20043;-58
2023/02/11 10:18:28;;;;;;;57.17;19.42;;;3.20;92.40;;;;;;5086234;28;20539;-58
2023/02/11 10:20:59;;;;;;;74.47;22.20;;;3.30;92.30;;;;;;5085041;28;20140;-58
2023/02/11 10:23:27;;;;;;;92.35;22.05;;;3.30;92.30;;;;;;5085830;28;20028;-58
2023/02/11 10:25:55;;;;;;;114.68;23.25;;;3.30;92.30;;;;;;5051424;28;20033;-58
2023/02/11 10:28:32;;;;;;;101.68;23.35;;;3.30;92.40;;;;;;5084646;28;20032;-58
2023/02/11 10:31:02;;;;;;;125.03;25.40;;;3.40;92.40;;;;;;5084303;28;20031;-58
2023/02/11 10:33:53;;;;;;;111.70;26.75;;;3.40;92.40;;;;;;5068352;28;20036;-57
2023/02/11 10:36:26;;;;;;;80.45;22.63;;;3.40;92.40;;;;;;5070365;28;20052;-58
2023/02/11 10:38:51;;;;;;;103.55;26.42;;;3.40;92.30;;;;;;5069083;28;20029;-58
2023/02/11 10:41:21;;;;;;;98.85;24.38;;;3.50;92.20;;;;;;5085629;28;20043;-58
2023/02/11 10:43:46;;;;;;;129.00;24.60;;;3.50;92.30;;;;;;5051299;28;20024;-58
2023/02/11 10:46:21;;;;;;;167.40;28.05;;;3.50;92.40;;;;;;5067497;28;20032;-58
2023/02/11 10:48:52;;;;;;;105.35;25.75;;;3.50;92.40;;;;;;5067730;28;20035;-58
2023/02/11 10:51:21;;;;;;;122.07;26.60;;;3.50;92.30;;;;;;5084407;28;20028;-58
2023/02/11 10:53:48;;;;;;;171.38;28.23;;;3.50;92.30;;;;;;5085937;28;20104;-58
2023/02/11 10:56:25;;;;;;;95.32;24.00;;;3.60;92.30;;;;;;5084464;28;20209;-58
2023/02/11 10:58:53;;;;;;;170.25;26.73;;;3.60;92.30;;;;;;5050749;28;20024;-58
2023/02/11 11:01:19;;;;;;;112.15;24.88;;;3.70;92.40;;;;;;5085505;28;20225;-58
2023/02/11 11:03:46;;;;;;;130.20;26.48;;;3.70;92.40;;;;;;5084069;28;20093;-58
2023/02/11 11:06:12;;;;;;;98.50;23.60;;;3.70;92.40;;;;;;5067379;28;20448;-58
2023/02/11 11:08:43;;;;;;;115.95;26.33;;;3.70;92.30;;;;;;5083584;28;20020;-58
2023/02/11 11:11:13;;;;;;;122.22;25.88;;;3.70;92.20;;;;;;5084107;28;20162;-58
2023/02/11 11:13:41;;;;;;;118.60;24.65;;;3.80;92.40;;;;;;5067906;28;20024;-57
2023/02/11 11:16:12;;;;;;;97.15;25.10;;;3.70;92.30;;;;;;5067753;28;20036;-58
2023/02/11 11:18:44;;;;;;;120.32;25.25;;;3.80;92.30;;;;;;5085222;28;20040;-57
2023/02/11 11:21:12;;;;;;;108.68;25.35;;;3.80;92.30;;;;;;5083908;28;20040;-58
2023/02/11 11:23:37;;;;;;;104.07;24.55;;;3.80;92.30;;;;;;5083542;28;20021;-57
2023/02/11 11:26:08;;;;;;;104.65;23.35;;;3.80;92.30;;;;;;5075872;28;20035;-58
2023/02/11 11:29:01;;;;;;;102.40;23.88;;;3.90;92.20;;;;;;5083507;28;20024;-58
2023/02/11 11:31:29;;;;;;;124.40;25.02;;;3.90;92.20;;;;;;5079303;28;20377;-58
2023/02/11 11:33:56;;;;;;;77.80;23.45;;;3.90;92.20;;;;;;5081755;28;20028;-58
2023/02/11 11:36:24;;;;;;;88.70;24.10;;;3.90;92.10;;;;;;5081574;28;20024;-58
2023/02/11 11:38:53;;;;;;;87.07;24.42;;;3.90;92.10;;;;;;5064643;28;20039;-58
2023/02/11 11:41:26;;;;;;;98.93;25.48;;;4.00;92.10;;;;;;5081805;28;20090;-58
2023/02/11 11:43:56;;;;;;;116.10;25.67;;;4.00;92.10;;;;;;5065358;28;20031;-57
2023/02/11 11:46:24;;;;;;;81.60;23.77;;;4.00;92.30;;;;;;5083165;28;20129;-58
2023/02/11 11:48:49;;;;;;;113.70;24.83;;;4.00;92.20;;;;;;5083000;28;20033;-58
2023/02/11 11:51:15;;;;;;;103.10;25.02;;;4.10;92.20;;;;;;5083432;28;20055;-58
2023/02/11 11:53:53;;;;;;;90.72;22.98;;;4.10;92.30;;;;;;5085461;28;20468;-58
2023/02/11 11:56:20;;;;;;;88.53;24.95;;;4.10;92.20;;;;;;5100757;28;20024;-58
2023/02/11 11:58:46;;;;;;;99.40;24.58;;;4.20;92.00;;;;;;5098870;28;20123;-58
2023/02/11 12:01:25;;;;;;;155.77;29.10;;;4.20;91.90;;;;;;5090647;28;20054;-58
2023/02/11 12:04:28;;;;;;;193.77;33.13;;;4.20;91.80;;;;;;5103310;28;20028;-58
2023/02/11 12:07:27;;;;;;;245.25;34.17;;;4.20;91.90;;;;;;5104522;28;20024;-58
2023/02/11 12:10:38;;;;;;;135.85;26.88;;;4.30;91.80;;;;;;5104951;28;20035;-58
2023/02/11 12:13:32;;;;;;;122.65;26.83;;;4.30;91.80;;;;;;5041979;28;20509;-58
2023/02/11 12:16:09;;;;;;;137.10;27.27;;;4.30;91.70;;;;;;5034242;28;20050;-58
2023/02/11 12:18:37;;;;;;;155.55;28.95;;;4.30;91.60;;;;;;5070388;28;20106;-58
2023/02/11 12:21:11;;;;;;;222.48;32.75;;;4.30;91.60;;;;;;5099642;28;20039;-58
2023/02/11 12:23:46;;;;;;;131.63;27.30;;;4.40;91.60;;;;;;5084096;28;20025;-58
2023/02/11 12:26:16;;;;;;;133.90;29.65;;;4.40;91.60;;;;;;5083634;28;20443;-58
2023/02/11 12:28:54;;;;;;;169.07;31.13;;;4.50;91.70;;;;;;5102083;28;20039;-58
2023/02/11 12:31:45;;;;;;;150.05;29.02;;;4.50;91.70;;;;;;5104215;28;20051;-58
2023/02/11 12:34:26;;;;;;;161.95;29.30;;;4.50;91.60;;;;;;5104308;28;20065;-58
2023/02/11 12:37:29;;;;;;;149.13;30.75;;;4.60;91.60;;;;;;5082770;28;20044;-57
2023/02/11 12:40:13;;;;;;;155.18;30.23;;;4.60;91.50;;;;;;5082330;28;20031;-58
2023/02/11 12:45:41;;;;;;;185.95;34.85;;;4.70;91.60;;;;;;5083994;28;20040;-58
2023/02/11 12:48:22;;;;;;;251.13;39.25;;;4.80;91.70;;;;;;5092096;28;20032;-57
2023/02/11 12:51:13;;;;;;;243.57;39.10;;;4.80;91.70;;;;;;5104531;28;20029;-58
2023/02/11 12:53:48;;;;;;;271.52;39.78;;;4.80;92.00;;;;;;5103249;28;20024;-58
2023/02/11 12:56:24;;;;;;;246.40;40.40;;;4.80;91.70;;;;;;5103020;28;20036;-58
2023/02/11 12:58:51;;;;;;;253.48;37.88;;;4.90;91.70;;;;;;5098316;28;20365;-58
2023/02/11 13:01:21;;;;;;;264.60;38.80;;;4.90;91.80;;;;;;5065728;28;20041;-58
2023/02/11 13:04:11;;;;;;;289.38;42.50;;;4.90;91.90;;;;;;5082595;28;20024;-58
2023/02/11 13:06:40;;;;;;;262.38;40.72;;;5.00;91.90;;;;;;5086222;28;20032;-58
2023/02/11 13:09:10;;;;;;;252.30;39.47;;;5.10;91.70;;;;;;5086117;28;20043;-58